OTBH/IUD METAR and TAF weather

Enter ICAO airport designator
Station Type Date Time Source
OTBH METAR 2020/03/31 10:06 UTC NOAA

OTBH 311006Z 33013KT 9999 FEW240 30/04 A2999 RMK SLP158 WND DATA ESTMD ALSTG/SLP ESTMD T03030043


Station Type Date Time Source
OTBH Decoded METAR 2020/03/31 10:06 UTC NOAA

Station name not available
Mar 31, 2020 - 06:06 AM EDT / 2020.03.31 1006 UTC
Wind: from the NNW (330 degrees) at 15 MPH (13 KT):0
Visibility: greater than 7 mile(s):0
Sky conditions: mostly clear
Temperature: 86.5 F (30.3 C)
Dew Point: 39.7 F (4.3 C)
Relative Humidity: 19%
Pressure (altimeter): 29.99 in. Hg (1015 hPa)
ob: OTBH 311006Z 33013KT 9999 FEW240 30/04 A2999 RMK SLP158 WND DATA ESTMD ALSTG/SLP ESTMD T03030043
cycle: 10

Station Type Date Time Source
OTBH TAF 2020/03/31 08:12 UTC NOAA

TAF TAF OTBH 310805Z 3108/0114 33010G15KT 9999 SKC QNH2998INS
BECMG 3115/3116 33009KT 9999 SKC QNH3000INS
BECMG 3121/3122 VRB06KT 9000 BR SKC QNH2997INS
BECMG 0104/0105 VRB06KT 9999 NSW SKC QNH2993INS
BECMG 0111/0112 32005KT 9999 SCT130 QNH2992INS TX30/3111Z TN17/0103Z

Example: see airport list